createdAt,value
2018-07-07T00:00:31.107Z,6.13
2018-07-07T00:01:34.471Z,6.70
2018-07-07T00:02:38.616Z,6.10
2018-07-07T00:03:41.958Z,7.00
2018-07-07T00:04:45.309Z,7.00
2018-07-07T00:05:48.648Z,5.73
2018-07-07T00:06:51.992Z,6.40
2018-07-07T00:07:55.360Z,5.93
2018-07-07T00:08:58.700Z,6.10
2018-07-07T00:10:01.797Z,6.00
2018-07-07T00:11:05.333Z,6.03
2018-07-07T00:12:08.665Z,5.73
2018-07-07T00:13:11.990Z,4.93
2018-07-07T00:14:15.385Z,6.37
2018-07-07T00:15:19.943Z,6.30
2018-07-07T00:16:23.264Z,6.20
2018-07-07T00:17:26.615Z,6.00
2018-07-07T00:18:29.940Z,5.97
2018-07-07T00:19:33.264Z,5.77
2018-07-07T00:20:36.582Z,6.20
2018-07-07T00:21:39.896Z,5.97
2018-07-07T00:22:43.248Z,6.00
2018-07-07T00:23:46.685Z,5.80
2018-07-07T00:24:50.034Z,6.67
2018-07-07T00:25:53.532Z,5.80
2018-07-07T00:26:56.968Z,6.60
2018-07-07T00:28:00.609Z,6.67
2018-07-07T00:29:04.021Z,5.77
2018-07-07T00:30:07.412Z,6.23
2018-07-07T00:31:10.737Z,5.40
2018-07-07T00:32:14.188Z,6.00
2018-07-07T00:33:17.594Z,5.27
2018-07-07T00:34:20.612Z,6.17
2018-07-07T00:35:24.102Z,6.83
2018-07-07T00:36:27.472Z,6.30
2018-07-07T00:37:30.793Z,6.10
2018-07-07T00:38:34.201Z,6.50
2018-07-07T00:39:37.560Z,5.50
2018-07-07T00:40:41.024Z,6.37
2018-07-07T00:41:44.712Z,5.00
2018-07-07T00:42:48.253Z,6.23
2018-07-07T00:43:51.904Z,5.77
2018-07-07T00:44:55.301Z,6.27
2018-07-07T00:45:58.705Z,6.60
2018-07-07T00:47:02.097Z,5.93
2018-07-07T00:48:05.568Z,6.30
2018-07-07T00:49:09.040Z,6.43
2018-07-07T00:50:12.421Z,6.20
2018-07-07T00:51:15.740Z,6.63
2018-07-07T00:52:19.072Z,6.00
2018-07-07T00:53:22.548Z,6.40
2018-07-07T00:54:25.856Z,5.53
2018-07-07T00:55:29.263Z,6.50
2018-07-07T00:56:32.565Z,5.63
2018-07-07T00:57:36.093Z,5.80
2018-07-07T00:58:39.548Z,5.70
2018-07-07T00:59:42.870Z,5.93
2018-07-07T01:00:49.896Z,6.00
2018-07-07T01:01:53.266Z,5.90
2018-07-07T01:02:56.613Z,5.00
2018-07-07T01:03:59.732Z,6.27
2018-07-07T01:05:03.094Z,7.70
2018-07-07T01:06:06.436Z,6.97
2018-07-07T01:07:09.976Z,6.90
2018-07-07T01:08:13.771Z,6.00
2018-07-07T01:09:17.101Z,6.83
2018-07-07T01:10:20.436Z,5.80
2018-07-07T01:11:23.758Z,7.10
2018-07-07T01:12:27.066Z,6.33
2018-07-07T01:13:30.452Z,6.33
2018-07-07T01:14:33.776Z,5.00
2018-07-07T01:15:37.144Z,5.70
2018-07-07T01:16:40.486Z,5.30
2018-07-07T01:17:43.801Z,6.27
2018-07-07T01:18:47.157Z,6.20
2018-07-07T01:19:50.755Z,6.27
2018-07-07T01:20:54.141Z,5.60
2018-07-07T01:21:58.088Z,5.20
2018-07-07T01:23:01.415Z,5.60
2018-07-07T01:24:04.907Z,7.13
2018-07-07T01:25:08.317Z,7.00
2018-07-07T01:26:12.070Z,6.43
2018-07-07T01:27:15.480Z,7.40
2018-07-07T01:28:18.824Z,6.07
2018-07-07T01:29:22.298Z,5.40
2018-07-07T01:30:25.726Z,6.80
2018-07-07T01:31:29.210Z,6.47
2018-07-07T01:32:32.517Z,6.10
2018-07-07T01:33:35.956Z,6.30
2018-07-07T01:34:39.635Z,6.60
2018-07-07T01:35:43.009Z,6.20
2018-07-07T01:36:46.944Z,6.47
2018-07-07T01:37:50.333Z,6.07
2018-07-07T01:38:53.621Z,5.53
2018-07-07T01:39:57.032Z,5.80
2018-07-07T01:41:00.776Z,6.53
2018-07-07T01:42:04.441Z,6.13
2018-07-07T01:43:07.559Z,6.57
2018-07-07T01:44:10.942Z,6.70
2018-07-07T01:45:14.321Z,5.93
2018-07-07T01:46:17.673Z,5.80
2018-07-07T01:47:20.986Z,5.57
2018-07-07T01:48:24.417Z,6.00
2018-07-07T01:49:27.948Z,5.63
2018-07-07T01:50:31.313Z,5.70
2018-07-07T01:51:34.838Z,6.03
2018-07-07T01:52:38.145Z,6.33
2018-07-07T01:53:41.580Z,6.33
2018-07-07T01:54:44.924Z,5.93
2018-07-07T01:55:48.302Z,5.60
2018-07-07T01:56:51.616Z,5.70
2018-07-07T01:57:54.963Z,5.50
2018-07-07T01:58:58.281Z,5.47
2018-07-07T02:00:01.712Z,5.93
2018-07-07T02:01:05.117Z,6.10
2018-07-07T02:02:08.460Z,5.77
2018-07-07T02:03:11.815Z,5.80
2018-07-07T02:04:15.727Z,5.40
2018-07-07T02:05:19.120Z,5.87
2018-07-07T02:06:22.153Z,5.40
2018-07-07T02:07:25.462Z,5.80
2018-07-07T02:08:28.780Z,6.70
2018-07-07T02:09:32.101Z,6.90
2018-07-07T02:10:35.590Z,5.27
2018-07-07T02:11:39.005Z,6.10
2018-07-07T02:12:42.321Z,5.60
2018-07-07T02:13:45.692Z,6.20
2018-07-07T02:14:49.036Z,5.10
2018-07-07T02:15:52.361Z,5.20
2018-07-07T02:16:55.730Z,5.40
2018-07-07T02:17:59.052Z,6.10
2018-07-07T02:19:02.519Z,5.90
2018-07-07T02:20:05.889Z,5.33
2018-07-07T02:21:09.224Z,5.50
2018-07-07T02:22:17.996Z,5.40
2018-07-07T02:23:21.314Z,5.43
2018-07-07T02:24:24.660Z,6.10
2018-07-07T02:25:27.993Z,5.43
2018-07-07T02:26:31.441Z,6.07
2018-07-07T02:27:34.881Z,5.70
2018-07-07T02:28:38.229Z,5.40
2018-07-07T02:29:41.592Z,5.30
2018-07-07T02:30:44.902Z,6.00
2018-07-07T02:31:48.299Z,6.10
2018-07-07T02:32:51.619Z,5.60
2018-07-07T02:33:54.939Z,6.23
2018-07-07T02:34:58.298Z,6.17
2018-07-07T02:36:01.635Z,5.93
2018-07-07T02:37:04.941Z,5.80
2018-07-07T02:38:08.289Z,5.80
2018-07-07T02:39:11.769Z,5.80
2018-07-07T02:40:15.106Z,6.30
2018-07-07T02:41:18.484Z,5.70
2018-07-07T02:42:21.858Z,6.60
2018-07-07T02:43:25.178Z,5.33
2018-07-07T02:44:28.537Z,5.40
2018-07-07T02:45:31.960Z,5.60
2018-07-07T02:46:35.335Z,5.30
2018-07-07T02:47:38.673Z,5.93
2018-07-07T02:48:41.972Z,5.10
2018-07-07T02:49:45.450Z,6.80
2018-07-07T02:50:48.765Z,5.70
2018-07-07T02:51:52.115Z,6.50
2018-07-07T02:52:55.610Z,6.00
2018-07-07T02:53:59.177Z,6.80
2018-07-07T02:55:02.504Z,4.87
2018-07-07T02:56:05.845Z,5.63
2018-07-07T02:57:09.168Z,5.73
2018-07-07T02:58:12.478Z,6.30
2018-07-07T02:59:15.849Z,6.20
2018-07-07T03:00:19.153Z,5.77
2018-07-07T03:01:22.475Z,6.10
2018-07-07T03:02:25.779Z,5.43
2018-07-07T03:03:29.281Z,6.47
2018-07-07T03:04:32.645Z,6.67
2018-07-07T03:05:36.216Z,5.90
2018-07-07T03:06:39.746Z,5.40
2018-07-07T03:07:43.038Z,6.43
2018-07-07T03:08:46.381Z,7.10
2018-07-07T03:09:49.769Z,7.50
2018-07-07T03:10:53.157Z,6.93
2018-07-07T03:11:56.477Z,6.17
2018-07-07T03:12:59.809Z,7.07
2018-07-07T03:14:03.181Z,6.50
2018-07-07T03:15:06.713Z,7.13
2018-07-07T03:16:10.039Z,5.60
2018-07-07T03:17:13.373Z,6.93
2018-07-07T03:18:16.878Z,6.30
2018-07-07T03:19:20.272Z,6.90
2018-07-07T03:20:23.696Z,6.30
2018-07-07T03:21:27.050Z,7.00
2018-07-07T03:22:30.417Z,7.03
2018-07-07T03:23:33.889Z,6.40
2018-07-07T03:24:37.248Z,5.60
2018-07-07T03:25:40.603Z,6.67
2018-07-07T03:26:43.972Z,7.23
2018-07-07T03:27:47.412Z,6.53
2018-07-07T03:28:50.793Z,6.57
2018-07-07T03:29:54.323Z,6.20
2018-07-07T03:30:57.649Z,7.77
2018-07-07T03:32:01.057Z,5.97
2018-07-07T03:33:04.380Z,7.00
2018-07-07T03:34:07.977Z,6.05
2018-07-07T03:35:11.303Z,7.13
2018-07-07T03:36:14.639Z,6.80
2018-07-07T03:37:18.071Z,6.60
2018-07-07T03:38:21.389Z,6.87
2018-07-07T03:39:24.698Z,6.57
2018-07-07T03:40:28.195Z,6.33
2018-07-07T03:41:31.566Z,6.83
2018-07-07T03:42:34.894Z,5.83
2018-07-07T03:43:38.223Z,6.90
2018-07-07T03:44:41.540Z,6.30
2018-07-07T03:45:44.903Z,6.40
2018-07-07T03:46:48.373Z,6.17
2018-07-07T03:47:51.867Z,6.10
2018-07-07T03:48:55.464Z,6.40
2018-07-07T03:49:58.834Z,6.27
2018-07-07T03:51:02.169Z,6.87
2018-07-07T03:52:05.731Z,6.05
2018-07-07T03:53:09.057Z,7.17
2018-07-07T03:54:12.358Z,6.40
2018-07-07T03:55:15.948Z,6.50
2018-07-07T03:56:19.362Z,7.13
2018-07-07T03:57:22.682Z,6.77
2018-07-07T03:58:26.148Z,5.50
2018-07-07T03:59:29.492Z,7.03
2018-07-07T04:00:32.817Z,6.63
2018-07-07T04:01:36.133Z,6.07
2018-07-07T04:02:39.496Z,6.37
2018-07-07T04:03:42.870Z,5.97
2018-07-07T04:04:46.257Z,6.90
2018-07-07T04:05:49.573Z,6.87
2018-07-07T04:06:52.905Z,6.67
2018-07-07T04:07:56.252Z,6.50
2018-07-07T04:08:59.602Z,6.90
2018-07-07T04:10:02.892Z,7.10
2018-07-07T04:11:06.628Z,6.60
2018-07-07T04:12:09.977Z,6.83
2018-07-07T04:13:13.296Z,7.13
2018-07-07T04:14:16.620Z,7.23
2018-07-07T04:15:19.939Z,6.87
2018-07-07T04:16:23.267Z,6.40
2018-07-07T04:17:26.670Z,5.93
2018-07-07T04:18:36.256Z,6.10
2018-07-07T04:19:39.606Z,7.93
2018-07-07T04:20:42.925Z,5.90
2018-07-07T04:21:46.365Z,7.50
2018-07-07T04:22:50.190Z,6.70
2018-07-07T04:23:53.520Z,6.83
2018-07-07T04:24:56.865Z,6.03
2018-07-07T04:26:00.556Z,7.03
2018-07-07T04:27:03.937Z,6.77
2018-07-07T04:28:07.728Z,7.13
2018-07-07T04:29:11.159Z,6.70
2018-07-07T04:30:14.480Z,7.93
2018-07-07T04:31:17.813Z,7.30
2018-07-07T04:32:21.162Z,7.50
2018-07-07T04:33:24.692Z,7.70
2018-07-07T04:34:28.111Z,7.90
2018-07-07T04:35:31.433Z,7.37
2018-07-07T04:36:34.915Z,7.60
2018-07-07T04:37:38.253Z,8.17
2018-07-07T04:38:41.620Z,6.57
2018-07-07T04:39:44.932Z,7.00
2018-07-07T04:40:48.858Z,7.50
2018-07-07T04:41:52.192Z,8.58
2018-07-07T04:42:55.644Z,7.37
2018-07-07T04:43:58.948Z,7.40
2018-07-07T04:45:02.298Z,7.33
2018-07-07T04:46:05.637Z,7.10
2018-07-07T04:47:08.953Z,7.60
2018-07-07T04:48:12.352Z,7.30
2018-07-07T04:49:15.772Z,6.70
2018-07-07T04:50:19.088Z,7.67
2018-07-07T04:51:22.672Z,5.63
2018-07-07T04:52:26.224Z,7.10
2018-07-07T04:53:29.811Z,7.37
2018-07-07T04:54:33.234Z,7.10
2018-07-07T04:55:36.608Z,6.83
2018-07-07T04:56:39.949Z,7.40
2018-07-07T04:57:43.318Z,6.60
2018-07-07T04:58:46.832Z,6.80
2018-07-07T04:59:50.166Z,7.83
2018-07-07T05:00:53.490Z,6.67
2018-07-07T05:01:57.086Z,7.47
2018-07-07T05:03:01.090Z,6.92
2018-07-07T05:04:04.444Z,7.25
2018-07-07T05:05:07.789Z,7.30
2018-07-07T05:06:11.153Z,6.40
2018-07-07T05:07:14.461Z,7.20
2018-07-07T05:08:17.853Z,7.13
2018-07-07T05:09:20.940Z,7.05
2018-07-07T05:10:24.249Z,7.17
2018-07-07T05:11:27.766Z,6.97
2018-07-07T05:12:31.080Z,7.03
2018-07-07T05:13:34.425Z,7.00
2018-07-07T05:14:37.738Z,7.07
2018-07-07T05:15:41.080Z,6.40
2018-07-07T05:16:44.424Z,7.22
2018-07-07T05:17:47.888Z,6.90
2018-07-07T05:18:51.225Z,6.30
2018-07-07T05:19:54.545Z,7.70
2018-07-07T05:20:57.849Z,7.73
2018-07-07T05:22:01.297Z,7.00
2018-07-07T05:23:04.803Z,6.50
2018-07-07T05:24:08.190Z,7.87
2018-07-07T05:25:11.483Z,6.87
2018-07-07T05:26:14.816Z,6.47
2018-07-07T05:27:18.128Z,6.57
2018-07-07T05:28:21.743Z,6.73
2018-07-07T05:29:25.052Z,6.05
2018-07-07T05:30:28.414Z,7.07
2018-07-07T05:31:31.731Z,7.27
2018-07-07T05:32:35.077Z,7.53
2018-07-07T05:33:38.388Z,7.50
2018-07-07T05:34:41.745Z,7.63
2018-07-07T05:35:45.172Z,7.60
2018-07-07T05:36:48.489Z,7.03
2018-07-07T05:37:51.865Z,7.60
2018-07-07T05:38:55.248Z,7.83
2018-07-07T05:39:58.665Z,8.30
2018-07-07T05:41:02.113Z,7.17
2018-07-07T05:42:05.600Z,7.30
2018-07-07T05:43:08.926Z,8.20
2018-07-07T05:44:12.301Z,6.87
2018-07-07T05:45:15.661Z,7.33
2018-07-07T05:46:18.980Z,7.80
2018-07-07T05:47:22.300Z,7.43
2018-07-07T05:48:25.638Z,8.23
2018-07-07T05:49:28.973Z,7.13
2018-07-07T05:50:32.361Z,7.47
2018-07-07T05:51:35.692Z,9.55
2018-07-07T05:52:39.455Z,9.30
2018-07-07T05:53:42.957Z,8.53
2018-07-07T05:54:46.384Z,9.33
2018-07-07T05:55:49.974Z,9.97
2018-07-07T05:56:53.372Z,9.60
2018-07-07T05:57:56.734Z,9.70
2018-07-07T05:59:00.189Z,9.20
2018-07-07T06:00:03.344Z,10.10
2018-07-07T06:01:06.690Z,8.75
2018-07-07T06:02:10.197Z,10.23
2018-07-07T06:03:13.569Z,9.68
2018-07-07T06:04:17.228Z,10.70
2018-07-07T06:05:20.673Z,14.70
2018-07-07T06:06:24.093Z,11.78
2018-07-07T06:07:27.452Z,9.90
2018-07-07T06:08:30.780Z,10.10
2018-07-07T06:09:34.180Z,9.20
2018-07-07T06:10:37.582Z,9.78
2018-07-07T06:11:41.060Z,10.53
2018-07-07T06:12:44.922Z,9.43
2018-07-07T06:13:48.249Z,9.83
2018-07-07T06:14:51.950Z,9.80
2018-07-07T06:15:55.473Z,9.03
2018-07-07T06:16:58.901Z,9.25
2018-07-07T06:18:02.252Z,9.23
2018-07-07T06:19:05.898Z,9.40
2018-07-07T06:20:09.246Z,10.15
2018-07-07T06:21:12.628Z,9.10
2018-07-07T06:22:16.192Z,10.05
2018-07-07T06:23:19.733Z,9.23
2018-07-07T06:24:23.051Z,9.28
2018-07-07T06:25:26.415Z,10.03
2018-07-07T06:26:29.944Z,9.53
2018-07-07T06:27:33.233Z,9.40
2018-07-07T06:28:36.630Z,9.80
2018-07-07T06:29:40.008Z,8.90
2018-07-07T06:30:43.349Z,9.10
2018-07-07T06:31:46.804Z,9.25
2018-07-07T06:32:50.180Z,8.10
2018-07-07T06:33:53.520Z,8.28
2018-07-07T06:34:56.926Z,9.08
2018-07-07T06:36:00.329Z,9.93
2018-07-07T06:37:03.804Z,8.78
2018-07-07T06:38:07.343Z,8.75
2018-07-07T06:39:10.695Z,9.40
2018-07-07T06:40:14.382Z,9.10
2018-07-07T06:41:17.717Z,10.03
2018-07-07T06:42:21.096Z,9.83
2018-07-07T06:43:24.436Z,7.75
2018-07-07T06:44:27.967Z,7.70
2018-07-07T06:45:31.396Z,10.58
2018-07-07T06:46:34.949Z,8.13
2018-07-07T06:47:38.443Z,8.80
2018-07-07T06:48:41.795Z,9.28
2018-07-07T06:49:45.180Z,10.15
2018-07-07T06:50:48.521Z,9.85
2018-07-07T06:51:52.079Z,8.83
2018-07-07T06:52:55.565Z,8.68
2018-07-07T06:53:59.115Z,8.95
2018-07-07T06:55:02.409Z,9.35
2018-07-07T06:56:05.909Z,8.23
2018-07-07T06:57:09.305Z,8.40
2018-07-07T06:58:12.685Z,8.80
2018-07-07T06:59:16.202Z,9.60
2018-07-07T07:00:19.531Z,10.23
2018-07-07T07:01:22.878Z,9.45
2018-07-07T07:02:26.218Z,9.40
2018-07-07T07:03:29.609Z,8.88
2018-07-07T07:04:33.004Z,8.50
2018-07-07T07:05:36.521Z,8.25
2018-07-07T07:06:39.845Z,8.80
2018-07-07T07:07:42.909Z,9.10
2018-07-07T07:08:46.332Z,9.15
2018-07-07T07:09:49.941Z,8.80
2018-07-07T07:10:53.547Z,10.05
2018-07-07T07:11:56.888Z,8.55
2018-07-07T07:13:00.273Z,8.53
2018-07-07T07:14:03.631Z,9.93
2018-07-07T07:15:10.014Z,10.85
2018-07-07T07:16:14.408Z,9.83
2018-07-07T07:17:17.951Z,8.48
2018-07-07T07:18:21.336Z,11.93
2018-07-07T07:19:24.840Z,10.65
2018-07-07T07:20:28.296Z,9.60
2018-07-07T07:21:31.685Z,9.53
2018-07-07T07:22:35.260Z,8.30
2018-07-07T07:23:38.338Z,8.05
2018-07-07T07:24:41.847Z,9.30
2018-07-07T07:25:52.134Z,8.75
2018-07-07T07:26:55.692Z,8.35
2018-07-07T07:27:59.050Z,8.90
2018-07-07T07:29:02.375Z,9.30
2018-07-07T07:30:06.772Z,9.70
2018-07-07T07:31:10.169Z,7.87
2018-07-07T07:32:13.642Z,9.00
2018-07-07T07:33:17.077Z,9.00
2018-07-07T07:34:20.449Z,8.03
2018-07-07T07:35:25.753Z,8.68
2018-07-07T07:36:42.782Z,8.73
2018-07-07T07:37:46.341Z,9.55
2018-07-07T07:38:49.733Z,8.33
2018-07-07T07:39:53.525Z,7.65
2018-07-07T07:40:56.904Z,7.87
2018-07-07T07:42:00.455Z,8.05
2018-07-07T07:43:03.868Z,7.60
2018-07-07T07:44:09.312Z,7.55
2018-07-07T07:45:12.728Z,8.03
2018-07-07T07:46:16.093Z,7.97
2018-07-07T07:47:22.348Z,8.05
2018-07-07T07:48:25.748Z,9.48
2018-07-07T07:49:29.533Z,9.05
2018-07-07T07:50:33.161Z,7.92
2018-07-07T07:51:36.819Z,9.25
2018-07-07T07:52:40.541Z,8.88
2018-07-07T07:53:44.058Z,8.13
2018-07-07T07:54:48.248Z,11.28
2018-07-07T07:55:51.990Z,10.93
2018-07-07T07:56:55.414Z,15.28
2018-07-07T07:57:58.778Z,12.73
2018-07-07T07:59:02.221Z,9.37
2018-07-07T08:00:05.660Z,10.32
2018-07-07T08:01:09.042Z,9.43
2018-07-07T08:02:12.420Z,9.00
2018-07-07T08:03:16.148Z,8.63
2018-07-07T08:04:20.046Z,9.00
2018-07-07T08:05:23.877Z,9.67
2018-07-07T08:06:30.799Z,9.33
2018-07-07T08:07:35.413Z,8.90
2018-07-07T08:08:43.198Z,7.97
2018-07-07T08:09:46.776Z,7.70
2018-07-07T08:10:50.298Z,9.53
2018-07-07T08:11:56.883Z,9.20
2018-07-07T08:12:59.935Z,8.60
2018-07-07T08:14:03.917Z,9.50
2018-07-07T08:15:10.949Z,9.63
2018-07-07T08:16:18.838Z,9.80
2018-07-07T08:17:23.039Z,8.23
2018-07-07T08:18:26.619Z,8.07
2018-07-07T08:19:30.519Z,8.90
2018-07-07T08:20:34.000Z,8.37
2018-07-07T08:21:37.521Z,8.30
2018-07-07T08:22:40.898Z,7.80
2018-07-07T08:23:46.123Z,8.87
2018-07-07T08:24:49.467Z,9.60
2018-07-07T08:25:52.866Z,8.63
2018-07-07T08:26:56.283Z,8.00
2018-07-07T08:27:59.644Z,7.93
2018-07-07T08:29:04.398Z,9.00
2018-07-07T08:30:07.844Z,8.03
2018-07-07T08:31:11.392Z,8.03
2018-07-07T08:32:16.217Z,8.20
2018-07-07T08:33:19.540Z,8.77
2018-07-07T08:34:23.451Z,7.60
2018-07-07T08:35:27.101Z,10.60
2018-07-07T08:36:30.584Z,10.30
2018-07-07T08:37:33.897Z,7.67
2018-07-07T08:38:37.200Z,11.20
2018-07-07T08:39:40.531Z,12.77
2018-07-07T08:40:43.886Z,10.03
2018-07-07T08:41:48.801Z,9.83
2018-07-07T08:42:52.786Z,10.33
2018-07-07T08:43:56.232Z,10.40
2018-07-07T08:45:00.883Z,10.30
2018-07-07T08:46:04.269Z,8.80
2018-07-07T08:47:07.431Z,9.13
2018-07-07T08:48:11.197Z,9.47
2018-07-07T08:49:14.598Z,9.00
2018-07-07T08:50:17.910Z,7.67
2018-07-07T08:51:21.845Z,8.90
2018-07-07T08:52:25.245Z,7.17
2018-07-07T08:53:29.616Z,7.90
2018-07-07T08:54:32.934Z,7.70
2018-07-07T08:55:36.477Z,7.83
2018-07-07T08:56:40.434Z,7.63
2018-07-07T08:57:44.359Z,9.10
2018-07-07T08:58:47.678Z,7.73
2018-07-07T08:59:50.997Z,7.63
2018-07-07T09:00:54.371Z,10.43
2018-07-07T09:01:57.730Z,8.40
2018-07-07T09:03:00.899Z,7.40
2018-07-07T09:04:04.293Z,8.00
2018-07-07T09:05:07.896Z,7.20
2018-07-07T09:06:10.988Z,7.73
2018-07-07T09:07:14.449Z,9.57
2018-07-07T09:08:17.986Z,10.77
2018-07-07T09:09:21.408Z,10.20
2018-07-07T09:10:24.946Z,12.20
2018-07-07T09:11:29.834Z,10.67
2018-07-07T09:13:46.934Z,10.70
2018-07-07T09:14:50.269Z,7.37
2018-07-07T09:16:00.117Z,7.80
2018-07-07T09:17:04.911Z,7.40
2018-07-07T09:18:08.357Z,8.13
2018-07-07T09:19:11.906Z,7.33
2018-07-07T09:20:15.256Z,8.20
2018-07-07T09:21:18.672Z,8.33
2018-07-07T09:22:22.441Z,8.80
2018-07-07T09:23:25.796Z,8.90
2018-07-07T09:24:31.497Z,11.50
2018-07-07T09:25:34.899Z,10.27
2018-07-07T09:26:38.476Z,9.50
2018-07-07T09:27:41.955Z,8.63
2018-07-07T09:28:46.642Z,8.70
2018-07-07T09:29:50.587Z,9.10
2018-07-07T09:30:53.933Z,8.90
2018-07-07T09:31:57.265Z,9.50
2018-07-07T09:33:00.713Z,9.70
2018-07-07T09:34:04.104Z,8.53
2018-07-07T09:35:07.437Z,8.97
2018-07-07T09:36:10.798Z,8.37
2018-07-07T09:37:14.181Z,9.10
2018-07-07T09:38:17.516Z,7.93
2018-07-07T09:39:20.888Z,10.20
2018-07-07T09:40:24.342Z,10.10
2018-07-07T09:41:27.733Z,10.60
2018-07-07T09:42:31.402Z,15.83
2018-07-07T09:43:34.740Z,15.23
2018-07-07T09:44:38.086Z,15.43
2018-07-07T09:45:41.681Z,11.63
2018-07-07T09:46:45.073Z,10.93
2018-07-07T09:47:48.396Z,10.73
2018-07-07T09:48:51.856Z,9.37
2018-07-07T09:49:55.417Z,7.23
2018-07-07T09:50:58.784Z,7.50
2018-07-07T09:52:02.262Z,7.70
2018-07-07T09:53:05.892Z,6.77
2018-07-07T09:54:09.772Z,7.10
2018-07-07T09:55:13.268Z,6.60
2018-07-07T09:56:17.057Z,5.87
2018-07-07T09:57:20.390Z,7.13
2018-07-07T09:58:23.910Z,7.73
2018-07-07T09:59:27.341Z,6.93
2018-07-07T10:00:36.156Z,7.20
2018-07-07T10:01:40.562Z,6.53
2018-07-07T10:02:44.556Z,7.93
2018-07-07T10:03:47.913Z,7.23
2018-07-07T10:04:51.305Z,9.07
2018-07-07T10:05:54.785Z,9.47
2018-07-07T10:06:59.667Z,10.30
2018-07-07T10:08:02.996Z,8.60
2018-07-07T10:09:07.452Z,9.97
2018-07-07T10:10:11.066Z,8.80
2018-07-07T10:11:15.344Z,8.70
2018-07-07T10:12:18.772Z,8.50
2018-07-07T10:13:22.822Z,7.50
2018-07-07T10:14:26.577Z,7.93
2018-07-07T10:15:30.993Z,8.00
2018-07-07T10:16:35.121Z,7.10
2018-07-07T10:17:42.694Z,6.80
2018-07-07T10:18:47.348Z,6.37
2018-07-07T10:19:50.809Z,6.70
2018-07-07T10:20:55.033Z,6.00
2018-07-07T10:21:59.462Z,6.73
2018-07-07T10:23:02.815Z,6.77
2018-07-07T10:24:06.161Z,8.00
2018-07-07T10:25:12.574Z,7.40
2018-07-07T10:26:17.004Z,7.20
2018-07-07T10:27:21.041Z,8.87
2018-07-07T10:28:24.746Z,7.53
2018-07-07T10:29:28.071Z,7.20
2018-07-07T10:30:31.592Z,8.47
2018-07-07T10:31:35.051Z,7.47
2018-07-07T10:32:38.380Z,8.20
2018-07-07T10:33:41.881Z,9.47
2018-07-07T10:34:45.266Z,7.40
2018-07-07T10:35:50.192Z,6.90
2018-07-07T10:36:53.677Z,7.10
2018-07-07T10:37:57.325Z,7.67
2018-07-07T10:39:00.765Z,7.57
2018-07-07T10:40:04.144Z,7.50
2018-07-07T10:41:07.632Z,7.50
2018-07-07T10:42:10.960Z,7.23
2018-07-07T10:43:14.413Z,7.00
2018-07-07T10:44:17.794Z,7.97
2018-07-07T10:45:21.144Z,8.20
2018-07-07T10:46:26.139Z,7.27
2018-07-07T10:47:29.700Z,7.73
2018-07-07T10:48:33.038Z,8.57
2018-07-07T10:49:36.459Z,8.60
2018-07-07T10:50:40.027Z,8.87
2018-07-07T10:51:43.566Z,9.47
2018-07-07T10:52:47.117Z,9.30
2018-07-07T10:53:50.425Z,10.47
2018-07-07T10:54:53.761Z,8.47
2018-07-07T10:55:57.194Z,8.37
2018-07-07T10:57:01.516Z,12.43
2018-07-07T10:58:06.116Z,10.80
2018-07-07T10:59:09.539Z,9.33
2018-07-07T11:00:12.976Z,9.67
2018-07-07T11:01:17.418Z,8.60
2018-07-07T11:02:25.127Z,10.13
2018-07-07T11:03:29.301Z,9.57
2018-07-07T11:04:32.683Z,9.60
2018-07-07T11:05:36.461Z,9.53
2018-07-07T11:06:40.259Z,8.63
2018-07-07T11:07:44.418Z,7.77
2018-07-07T11:08:48.545Z,7.93
2018-07-07T11:09:51.578Z,8.37
2018-07-07T11:10:54.901Z,7.57
2018-07-07T11:11:58.407Z,8.43
2018-07-07T11:13:01.889Z,8.87
2018-07-07T11:14:05.906Z,7.20
2018-07-07T11:15:10.673Z,8.60
2018-07-07T11:16:14.175Z,8.40
2018-07-07T11:17:17.505Z,8.13
2018-07-07T11:18:20.979Z,9.33
2018-07-07T11:19:24.265Z,8.03
2018-07-07T11:20:27.591Z,9.00
2018-07-07T11:21:32.209Z,8.60
2018-07-07T11:22:36.366Z,9.37
2018-07-07T11:23:40.038Z,8.47
2018-07-07T11:24:43.424Z,9.40
2018-07-07T11:25:46.785Z,9.53
2018-07-07T11:26:50.409Z,8.33
2018-07-07T11:27:53.768Z,9.47
2018-07-07T11:28:57.447Z,9.07
2018-07-07T11:30:00.853Z,9.90
2018-07-07T11:31:04.447Z,10.10
2018-07-07T11:32:08.273Z,9.13
2018-07-07T11:33:11.969Z,9.33
2018-07-07T11:34:15.479Z,9.10
2018-07-07T11:35:19.006Z,9.00
2018-07-07T11:36:22.394Z,8.57
2018-07-07T11:37:25.844Z,8.67
2018-07-07T11:38:29.522Z,8.00
2018-07-07T11:39:33.782Z,7.73
2018-07-07T11:40:37.406Z,10.77
2018-07-07T11:41:40.814Z,7.57
2018-07-07T11:42:44.157Z,7.63
2018-07-07T11:43:48.207Z,9.13
2018-07-07T11:44:51.543Z,8.07
2018-07-07T11:45:54.972Z,7.60
2018-07-07T11:46:58.360Z,9.37
2018-07-07T11:48:01.827Z,8.60
2018-07-07T11:49:05.662Z,9.17
2018-07-07T11:50:10.794Z,10.30
2018-07-07T11:51:17.502Z,9.30
2018-07-07T11:52:21.765Z,8.93
2018-07-07T11:53:25.537Z,7.83
2018-07-07T11:54:28.970Z,8.97
2018-07-07T11:55:33.639Z,9.27
2018-07-07T11:56:38.041Z,9.93
2018-07-07T11:57:41.640Z,8.83
2018-07-07T11:58:45.273Z,7.93
2018-07-07T11:59:48.596Z,8.87
2018-07-07T12:00:52.019Z,8.47
2018-07-07T12:01:57.141Z,8.50
2018-07-07T12:03:01.383Z,7.67
2018-07-07T12:04:05.268Z,7.87
2018-07-07T12:05:09.217Z,7.40
2018-07-07T12:06:12.618Z,8.83
2018-07-07T12:07:16.038Z,7.47
2018-07-07T12:08:20.051Z,7.80
2018-07-07T12:09:23.684Z,8.80
2018-07-07T12:10:27.313Z,7.87
2018-07-07T12:11:30.983Z,9.17
2018-07-07T12:12:35.658Z,8.50
2018-07-07T12:13:39.036Z,8.53
2018-07-07T12:14:42.390Z,7.90
2018-07-07T12:15:45.921Z,9.03
2018-07-07T12:16:49.188Z,8.07
2018-07-07T12:17:52.628Z,8.17
2018-07-07T12:18:55.991Z,7.90
2018-07-07T12:19:59.322Z,7.17
2018-07-07T12:21:03.601Z,7.70
2018-07-07T12:22:07.613Z,7.17
2018-07-07T12:23:10.996Z,6.93
2018-07-07T12:24:14.468Z,10.80
2018-07-07T12:25:18.792Z,8.50
2018-07-07T12:26:22.265Z,8.57
2018-07-07T12:27:25.883Z,7.83
2018-07-07T12:28:29.416Z,7.60
2018-07-07T12:29:33.696Z,8.10
2018-07-07T12:30:37.041Z,6.87
2018-07-07T12:31:41.838Z,9.10
2018-07-07T12:32:45.181Z,9.47
2018-07-07T12:33:49.586Z,9.10
2018-07-07T12:34:52.696Z,8.70
2018-07-07T12:35:56.070Z,8.77
2018-07-07T12:36:59.700Z,8.00
2018-07-07T12:38:03.099Z,7.90
2018-07-07T12:39:06.941Z,8.90
2018-07-07T12:40:10.364Z,7.50
2018-07-07T12:41:13.991Z,9.30
2018-07-07T12:42:17.597Z,7.37
2018-07-07T12:43:21.001Z,7.50
2018-07-07T12:44:24.423Z,7.63
2018-07-07T12:45:27.884Z,7.10
2018-07-07T12:46:31.290Z,7.80
2018-07-07T12:47:34.757Z,8.73
2018-07-07T12:48:38.157Z,6.97
2018-07-07T12:49:41.554Z,6.87
2018-07-07T12:50:44.943Z,7.50
2018-07-07T12:51:48.268Z,7.40
2018-07-07T12:52:52.089Z,7.47
2018-07-07T12:53:55.413Z,7.27
2018-07-07T12:54:58.872Z,7.63
2018-07-07T12:56:02.234Z,7.93
2018-07-07T12:57:05.545Z,8.03
2018-07-07T12:58:08.911Z,7.33
2018-07-07T12:59:12.230Z,6.87
2018-07-07T13:00:15.724Z,7.00
2018-07-07T13:01:19.134Z,7.90
2018-07-07T13:02:22.425Z,7.60
2018-07-07T13:03:25.764Z,7.30
2018-07-07T13:04:29.162Z,6.60
2018-07-07T13:05:32.481Z,7.50
2018-07-07T13:06:35.854Z,12.27
2018-07-07T13:07:39.368Z,11.30
2018-07-07T13:08:43.075Z,8.80
2018-07-07T13:09:46.445Z,7.33
2018-07-07T13:10:49.829Z,7.90
2018-07-07T13:11:53.213Z,6.47
2018-07-07T13:12:56.584Z,6.60
2018-07-07T13:13:59.941Z,7.20
2018-07-07T13:15:03.371Z,7.40
2018-07-07T13:16:06.889Z,7.97
2018-07-07T13:17:10.156Z,7.23
2018-07-07T13:18:13.544Z,7.17
2018-07-07T13:19:16.861Z,8.80
2018-07-07T13:20:20.242Z,7.30
2018-07-07T13:21:23.720Z,8.33
2018-07-07T13:22:27.177Z,8.07
2018-07-07T13:23:30.550Z,8.23
2018-07-07T13:24:33.946Z,8.30
2018-07-07T13:25:37.276Z,6.20
2018-07-07T13:26:40.622Z,6.73
2018-07-07T13:27:43.925Z,6.37
2018-07-07T13:28:47.341Z,7.00
2018-07-07T13:29:50.670Z,7.50
2018-07-07T13:30:54.010Z,8.13
2018-07-07T13:31:57.349Z,7.30
2018-07-07T13:33:00.773Z,7.23
2018-07-07T13:34:04.057Z,6.63
2018-07-07T13:35:07.430Z,6.93
2018-07-07T13:36:10.795Z,7.70
2018-07-07T13:37:14.128Z,7.90
2018-07-07T13:38:17.521Z,6.80
2018-07-07T13:39:20.888Z,6.93
2018-07-07T13:40:24.345Z,6.77
2018-07-07T13:41:27.774Z,6.90
2018-07-07T13:42:31.124Z,5.60
2018-07-07T13:43:34.490Z,7.00
2018-07-07T13:44:37.880Z,6.87
2018-07-07T13:45:41.229Z,6.93
2018-07-07T13:46:44.724Z,9.73
2018-07-07T13:47:48.257Z,8.40
2018-07-07T13:48:51.634Z,7.47
2018-07-07T13:49:54.975Z,7.60
2018-07-07T13:50:58.500Z,6.80
2018-07-07T13:52:01.911Z,7.43
2018-07-07T13:53:05.257Z,7.23
2018-07-07T13:54:08.597Z,7.23
2018-07-07T13:55:12.109Z,8.30
2018-07-07T13:56:15.586Z,6.77
2018-07-07T13:57:18.918Z,6.80
2018-07-07T13:58:22.448Z,6.80
2018-07-07T13:59:25.830Z,6.63
2018-07-07T14:00:29.197Z,8.10
2018-07-07T14:01:32.589Z,7.33
2018-07-07T14:02:36.034Z,6.90
2018-07-07T14:03:40.602Z,7.40
2018-07-07T14:04:43.996Z,8.30
2018-07-07T14:05:47.363Z,7.30